Time;durP1;ratioP1;P1;durP2;ratioP2;P2;SDS_P1;SDS_P2;PMS_P1;PMS_P2;Temp;Humidity;BMP_temperature;BMP_pressure;BME280_temperature;BME280_humidity;BME280_pressure;Samples;Min_cycle;Max_cycle;Signal;HPM_P1;HPM_P2
2022/03/31 00:00:00;;;;;;;7.7;7.0;;;;;;;6.3;100.0;99880;;;;
2022/03/31 00:01:02;;;;;;;7.7;7.0;;;;;;;6.2;100.0;99880;;;;
2022/03/31 00:02:00;;;;;;;7.7;7.0;;;;;;;6.2;100.0;99880;;;;
2022/03/31 00:03:01;;;;;;;7.7;7.0;;;;;;;6.2;100.0;99880;;;;
2022/03/31 00:04:00;;;;;;;7.7;7.0;;;;;;;6.2;100.0;99880;;;;
2022/03/31 00:05:00;;;;;;;7.7;7.0;;;;;;;6.3;100.0;99880;;;;
2022/03/31 00:06:00;;;;;;;7.7;7.0;;;;;;;6.3;100.0;99880;;;;
2022/03/31 00:07:00;;;;;;;7.7;7.0;;;;;;;6.3;100.0;99880;;;;
2022/03/31 00:08:01;;;;;;;7.7;7.0;;;;;;;6.3;100.0;99880;;;;
2022/03/31 00:09:00;;;;;;;7.9;7.1;;;;;;;6.2;100.0;99880;;;;
2022/03/31 00:10:00;;;;;;;7.9;7.1;;;;;;;6.2;100.0;99880;;;;
2022/03/31 00:11:00;;;;;;;7.9;7.1;;;;;;;6.3;100.0;99880;;;;
2022/03/31 00:12:00;;;;;;;7.9;7.1;;;;;;;6.3;100.0;99880;;;;
2022/03/31 00:13:01;;;;;;;7.9;7.1;;;;;;;6.3;100.0;99880;;;;
2022/03/31 00:14:00;;;;;;;7.9;7.1;;;;;;;6.3;100.0;99880;;;;
2022/03/31 00:15:00;;;;;;;7.9;7.1;;;;;;;6.3;100.0;99880;;;;
2022/03/31 00:16:00;;;;;;;7.9;7.1;;;;;;;6.3;100.0;99880;;;;
2022/03/31 00:17:00;;;;;;;7.9;7.1;;;;;;;6.4;100.0;99870;;;;
2022/03/31 00:18:02;;;;;;;7.9;7.1;;;;;;;6.4;100.0;99870;;;;
2022/03/31 00:19:00;;;;;;;7.9;7.1;;;;;;;6.3;100.0;99870;;;;
2022/03/31 00:20:06;;;;;;;7.9;7.1;;;;;;;6.3;100.0;99870;;;;
2022/03/31 00:23:00;;;;;;;7.9;7.1;;;;;;;6.2;100.0;99870;;;;
2022/03/31 00:24:00;;;;;;;7.9;7.1;;;;;;;6.2;100.0;99870;;;;
2022/03/31 00:25:00;;;;;;;7.9;7.1;;;;;;;6.3;100.0;99870;;;;
2022/03/31 00:26:00;;;;;;;7.9;7.1;;;;;;;6.3;100.0;99870;;;;
2022/03/31 00:27:00;;;;;;;7.9;7.1;;;;;;;6.3;100.0;99870;;;;
2022/03/31 00:28:03;;;;;;;7.9;7.1;;;;;;;6.3;100.0;99870;;;;
2022/03/31 00:29:00;;;;;;;8.6;7.9;;;;;;;6.2;100.0;99870;;;;
2022/03/31 00:30:00;;;;;;;8.6;7.9;;;;;;;6.2;100.0;99870;;;;
2022/03/31 00:31:00;;;;;;;8.6;7.9;;;;;;;6.1;100.0;99860;;;;
2022/03/31 00:32:00;;;;;;;8.6;7.9;;;;;;;6.1;100.0;99860;;;;
2022/03/31 00:33:00;;;;;;;8.6;7.9;;;;;;;6.1;100.0;99870;;;;
2022/03/31 00:34:00;;;;;;;8.6;7.9;;;;;;;6.1;100.0;99870;;;;
2022/03/31 00:35:00;;;;;;;8.6;7.9;;;;;;;6.0;100.0;99870;;;;
2022/03/31 00:36:00;;;;;;;8.6;7.9;;;;;;;6.0;100.0;99870;;;;
2022/03/31 00:37:00;;;;;;;8.6;7.9;;;;;;;6.0;100.0;99870;;;;
2022/03/31 00:38:00;;;;;;;8.6;7.9;;;;;;;6.0;100.0;99870;;;;
2022/03/31 00:40:00;;;;;;;8.6;7.9;;;;;;;5.9;100.0;99870;;;;
2022/03/31 00:41:00;;;;;;;8.6;7.9;;;;;;;5.9;100.0;99880;;;;
2022/03/31 00:42:02;;;;;;;8.6;7.9;;;;;;;5.9;100.0;99880;;;;
2022/03/31 00:43:00;;;;;;;8.6;7.9;;;;;;;5.9;100.0;99870;;;;
2022/03/31 00:44:00;;;;;;;8.6;7.9;;;;;;;5.9;100.0;99870;;;;
2022/03/31 00:45:00;;;;;;;8.6;7.9;;;;;;;6.1;100.0;99860;;;;
2022/03/31 00:46:00;;;;;;;8.6;7.9;;;;;;;6.1;100.0;99860;;;;
2022/03/31 00:47:00;;;;;;;8.6;7.9;;;;;;;5.9;100.0;99860;;;;
2022/03/31 00:48:00;;;;;;;8.6;7.9;;;;;;;5.9;100.0;99860;;;;
2022/03/31 00:49:01;;;;;;;10.6;9.7;;;;;;;5.8;100.0;99860;;;;
2022/03/31 00:50:00;;;;;;;10.6;9.7;;;;;;;5.8;100.0;99860;;;;
2022/03/31 00:51:00;;;;;;;10.6;9.7;;;;;;;5.8;100.0;99860;;;;
2022/03/31 00:52:00;;;;;;;10.6;9.7;;;;;;;5.8;100.0;99860;;;;
2022/03/31 00:53:11;;;;;;;10.6;9.7;;;;;;;5.8;100.0;99860;;;;
2022/03/31 00:54:00;;;;;;;10.6;9.7;;;;;;;5.8;100.0;99860;;;;
2022/03/31 00:55:00;;;;;;;10.6;9.7;;;;;;;5.8;100.0;99860;;;;
2022/03/31 00:56:00;;;;;;;10.6;9.7;;;;;;;5.8;100.0;99860;;;;
2022/03/31 00:57:02;;;;;;;10.6;9.7;;;;;;;5.8;100.0;99860;;;;
2022/03/31 00:58:00;;;;;;;10.6;9.7;;;;;;;5.8;100.0;99860;;;;
2022/03/31 00:59:01;;;;;;;10.6;9.7;;;;;;;5.8;100.0;99860;;;;
2022/03/31 01:00:00;;;;;;;10.6;9.7;;;;;;;5.8;100.0;99860;;;;
2022/03/31 01:01:01;;;;;;;10.6;9.7;;;;;;;6.0;100.0;99860;;;;
2022/03/31 01:02:01;;;;;;;10.6;9.7;;;;;;;6.0;100.0;99860;;;;
2022/03/31 01:03:00;;;;;;;10.6;9.7;;;;;;;5.8;100.0;99860;;;;
2022/03/31 01:04:00;;;;;;;10.6;9.7;;;;;;;5.8;100.0;99860;;;;
2022/03/31 01:05:00;;;;;;;10.6;9.7;;;;;;;5.8;100.0;99850;;;;
2022/03/31 01:06:00;;;;;;;10.6;9.7;;;;;;;5.8;100.0;99850;;;;
2022/03/31 01:07:01;;;;;;;10.6;9.7;;;;;;;5.8;100.0;99860;;;;
2022/03/31 01:08:00;;;;;;;12.3;11.0;;;;;;;5.8;100.0;99860;;;;
2022/03/31 01:09:03;;;;;;;12.3;11.0;;;;;;;5.9;100.0;99860;;;;
2022/03/31 01:10:00;;;;;;;12.3;11.0;;;;;;;5.9;100.0;99860;;;;
2022/03/31 01:11:00;;;;;;;12.3;11.0;;;;;;;6.1;100.0;99850;;;;
2022/03/31 01:12:01;;;;;;;12.3;11.0;;;;;;;6.1;100.0;99850;;;;
2022/03/31 01:13:03;;;;;;;12.3;11.0;;;;;;;6.1;100.0;99860;;;;
2022/03/31 01:14:00;;;;;;;12.3;11.0;;;;;;;6.1;100.0;99860;;;;
2022/03/31 01:15:10;;;;;;;12.3;11.0;;;;;;;6.1;100.0;99850;;;;
2022/03/31 01:16:01;;;;;;;12.3;11.0;;;;;;;6.1;100.0;99850;;;;
2022/03/31 01:17:00;;;;;;;12.3;11.0;;;;;;;6.3;100.0;99850;;;;
2022/03/31 01:18:00;;;;;;;12.3;11.0;;;;;;;6.3;100.0;99850;;;;
2022/03/31 01:19:04;;;;;;;12.3;11.0;;;;;;;6.4;100.0;99850;;;;
2022/03/31 01:20:00;;;;;;;12.3;11.0;;;;;;;6.4;100.0;99850;;;;
2022/03/31 01:21:01;;;;;;;12.3;11.0;;;;;;;6.4;100.0;99850;;;;
2022/03/31 01:22:00;;;;;;;12.3;11.0;;;;;;;6.4;100.0;99850;;;;
2022/03/31 01:23:00;;;;;;;12.3;11.0;;;;;;;6.4;100.0;99850;;;;
2022/03/31 01:24:00;;;;;;;12.3;11.0;;;;;;;6.4;100.0;99850;;;;
2022/03/31 01:25:01;;;;;;;12.3;11.0;;;;;;;6.5;100.0;99850;;;;
2022/03/31 01:26:00;;;;;;;12.3;11.0;;;;;;;6.5;100.0;99850;;;;
2022/03/31 01:27:01;;;;;;;12.3;11.0;;;;;;;6.3;100.0;99850;;;;
2022/03/31 01:28:00;;;;;;;10.7;9.6;;;;;;;6.3;100.0;99850;;;;
2022/03/31 01:29:00;;;;;;;10.7;9.6;;;;;;;6.2;100.0;99850;;;;
2022/03/31 01:30:00;;;;;;;10.7;9.6;;;;;;;6.2;100.0;99850;;;;
2022/03/31 01:31:00;;;;;;;10.7;9.6;;;;;;;6.2;100.0;99850;;;;
2022/03/31 01:32:00;;;;;;;10.7;9.6;;;;;;;6.2;100.0;99850;;;;
2022/03/31 01:33:00;;;;;;;10.7;9.6;;;;;;;6.1;100.0;99850;;;;
2022/03/31 01:34:00;;;;;;;10.7;9.6;;;;;;;6.1;100.0;99850;;;;
2022/03/31 01:35:00;;;;;;;10.7;9.6;;;;;;;6.2;100.0;99850;;;;
2022/03/31 01:36:03;;;;;;;10.7;9.6;;;;;;;6.2;100.0;99850;;;;
2022/03/31 01:37:00;;;;;;;10.7;9.6;;;;;;;6.3;100.0;99850;;;;
2022/03/31 01:38:00;;;;;;;10.7;9.6;;;;;;;6.3;100.0;99850;;;;
2022/03/31 01:39:00;;;;;;;10.7;9.6;;;;;;;6.3;100.0;99850;;;;
2022/03/31 01:40:00;;;;;;;10.7;9.6;;;;;;;6.3;100.0;99850;;;;
2022/03/31 01:41:00;;;;;;;10.7;9.6;;;;;;;6.1;100.0;99850;;;;
2022/03/31 01:42:00;;;;;;;10.7;9.6;;;;;;;6.1;100.0;99850;;;;
2022/03/31 01:43:00;;;;;;;10.7;9.6;;;;;;;6.1;100.0;99850;;;;
2022/03/31 01:44:00;;;;;;;10.7;9.6;;;;;;;6.1;100.0;99850;;;;
2022/03/31 01:45:00;;;;;;;10.7;9.6;;;;;;;6.2;100.0;99840;;;;
2022/03/31 01:46:00;;;;;;;10.7;9.6;;;;;;;6.2;100.0;99840;;;;
2022/03/31 01:47:00;;;;;;;10.7;9.6;;;;;;;6.1;100.0;99840;;;;
2022/03/31 01:48:00;;;;;;;11.0;9.9;;;;;;;6.1;100.0;99840;;;;
2022/03/31 01:49:00;;;;;;;11.0;9.9;;;;;;;6.0;100.0;99840;;;;
2022/03/31 01:50:01;;;;;;;11.0;9.9;;;;;;;6.0;100.0;99840;;;;
2022/03/31 01:51:00;;;;;;;11.0;9.9;;;;;;;6.0;100.0;99840;;;;
2022/03/31 01:52:00;;;;;;;11.0;9.9;;;;;;;6.0;100.0;99840;;;;
2022/03/31 01:53:00;;;;;;;11.0;9.9;;;;;;;5.9;100.0;99840;;;;
2022/03/31 01:54:00;;;;;;;11.0;9.9;;;;;;;5.9;100.0;99840;;;;
2022/03/31 01:55:00;;;;;;;11.0;9.9;;;;;;;5.9;100.0;99840;;;;
2022/03/31 01:56:00;;;;;;;11.0;9.9;;;;;;;5.9;100.0;99840;;;;
2022/03/31 01:57:01;;;;;;;11.0;9.9;;;;;;;5.8;100.0;99830;;;;
2022/03/31 01:58:00;;;;;;;11.0;9.9;;;;;;;5.8;100.0;99830;;;;
2022/03/31 01:59:00;;;;;;;11.0;9.9;;;;;;;5.8;100.0;99840;;;;
2022/03/31 02:00:02;;;;;;;11.0;9.9;;;;;;;5.8;100.0;99840;;;;
2022/03/31 02:01:00;;;;;;;11.0;9.9;;;;;;;5.8;100.0;99840;;;;
2022/03/31 02:02:00;;;;;;;11.0;9.9;;;;;;;5.8;100.0;99840;;;;
2022/03/31 02:03:00;;;;;;;11.0;9.9;;;;;;;5.9;100.0;99830;;;;
2022/03/31 02:04:00;;;;;;;11.0;9.9;;;;;;;5.9;100.0;99830;;;;
2022/03/31 02:05:00;;;;;;;11.0;9.9;;;;;;;5.7;100.0;99840;;;;
2022/03/31 02:06:00;;;;;;;11.0;9.9;;;;;;;5.7;100.0;99840;;;;
2022/03/31 02:07:00;;;;;;;11.0;9.9;;;;;;;5.7;100.0;99830;;;;
2022/03/31 02:08:00;;;;;;;12.6;11.3;;;;;;;5.7;100.0;99830;;;;
2022/03/31 02:09:00;;;;;;;12.6;11.3;;;;;;;5.8;100.0;99830;;;;
2022/03/31 02:10:00;;;;;;;12.6;11.3;;;;;;;5.8;100.0;99830;;;;
2022/03/31 02:11:00;;;;;;;12.6;11.3;;;;;;;5.8;100.0;99830;;;;
2022/03/31 02:12:00;;;;;;;12.6;11.3;;;;;;;5.8;100.0;99830;;;;
2022/03/31 02:13:01;;;;;;;12.6;11.3;;;;;;;5.7;100.0;99830;;;;
2022/03/31 02:14:00;;;;;;;12.6;11.3;;;;;;;5.7;100.0;99830;;;;
2022/03/31 02:15:00;;;;;;;12.6;11.3;;;;;;;5.8;100.0;99830;;;;
2022/03/31 02:16:00;;;;;;;12.6;11.3;;;;;;;5.8;100.0;99830;;;;
2022/03/31 02:17:00;;;;;;;12.6;11.3;;;;;;;5.8;100.0;99830;;;;
2022/03/31 02:18:02;;;;;;;12.6;11.3;;;;;;;5.8;100.0;99830;;;;
2022/03/31 02:19:00;;;;;;;12.6;11.3;;;;;;;5.8;100.0;99820;;;;
2022/03/31 02:20:01;;;;;;;12.6;11.3;;;;;;;5.8;100.0;99820;;;;
2022/03/31 02:21:00;;;;;;;12.6;11.3;;;;;;;5.8;100.0;99820;;;;
2022/03/31 02:22:00;;;;;;;12.6;11.3;;;;;;;5.8;100.0;99820;;;;
2022/03/31 02:23:00;;;;;;;12.6;11.3;;;;;;;5.8;100.0;99820;;;;
2022/03/31 02:24:01;;;;;;;12.6;11.3;;;;;;;5.8;100.0;99820;;;;
2022/03/31 02:25:00;;;;;;;12.6;11.3;;;;;;;5.8;100.0;99820;;;;
2022/03/31 02:26:00;;;;;;;12.6;11.3;;;;;;;5.8;100.0;99820;;;;
2022/03/31 02:27:00;;;;;;;12.6;11.3;;;;;;;5.8;100.0;99820;;;;
2022/03/31 02:28:00;;;;;;;13.2;12.0;;;;;;;5.8;100.0;99820;;;;
2022/03/31 02:29:00;;;;;;;13.2;12.0;;;;;;;5.8;100.0;99810;;;;
2022/03/31 02:30:00;;;;;;;13.2;12.0;;;;;;;5.8;100.0;99810;;;;
2022/03/31 02:31:00;;;;;;;13.2;12.0;;;;;;;5.9;100.0;99810;;;;
2022/03/31 02:32:00;;;;;;;13.2;12.0;;;;;;;5.9;100.0;99810;;;;
2022/03/31 02:33:00;;;;;;;13.2;12.0;;;;;;;5.7;100.0;99810;;;;
2022/03/31 02:34:00;;;;;;;13.2;12.0;;;;;;;5.7;100.0;99810;;;;
2022/03/31 02:35:00;;;;;;;13.2;12.0;;;;;;;5.7;100.0;99810;;;;
2022/03/31 02:36:00;;;;;;;13.2;12.0;;;;;;;5.7;100.0;99810;;;;
2022/03/31 02:37:00;;;;;;;13.2;12.0;;;;;;;5.7;100.0;99810;;;;
2022/03/31 02:38:00;;;;;;;13.2;12.0;;;;;;;5.7;100.0;99810;;;;
2022/03/31 02:39:00;;;;;;;13.2;12.0;;;;;;;5.7;100.0;99810;;;;
2022/03/31 02:40:00;;;;;;;13.2;12.0;;;;;;;5.7;100.0;99810;;;;
2022/03/31 02:41:00;;;;;;;13.2;12.0;;;;;;;5.7;100.0;99800;;;;
2022/03/31 02:42:01;;;;;;;13.2;12.0;;;;;;;5.7;100.0;99800;;;;
2022/03/31 02:43:00;;;;;;;13.2;12.0;;;;;;;5.7;100.0;99800;;;;
2022/03/31 02:44:00;;;;;;;13.2;12.0;;;;;;;5.7;100.0;99800;;;;
2022/03/31 02:45:01;;;;;;;13.2;12.0;;;;;;;5.8;100.0;99800;;;;
2022/03/31 02:46:00;;;;;;;13.2;12.0;;;;;;;5.8;100.0;99800;;;;
2022/03/31 02:47:00;;;;;;;13.2;12.0;;;;;;;5.8;100.0;99790;;;;
2022/03/31 02:48:00;;;;;;;14.0;12.7;;;;;;;5.8;100.0;99790;;;;
2022/03/31 02:49:00;;;;;;;14.0;12.7;;;;;;;5.9;100.0;99800;;;;
2022/03/31 02:50:00;;;;;;;14.0;12.7;;;;;;;5.9;100.0;99800;;;;
2022/03/31 02:51:00;;;;;;;14.0;12.7;;;;;;;5.8;100.0;99790;;;;
2022/03/31 02:52:00;;;;;;;14.0;12.7;;;;;;;5.8;100.0;99790;;;;
2022/03/31 02:56:00;;;;;;;14.0;12.7;;;;;;;5.8;100.0;99790;;;;
2022/03/31 02:57:00;;;;;;;14.0;12.7;;;;;;;5.8;100.0;99790;;;;
2022/03/31 02:58:03;;;;;;;14.0;12.7;;;;;;;5.8;100.0;99790;;;;
2022/03/31 02:59:00;;;;;;;14.0;12.7;;;;;;;5.8;100.0;99790;;;;
2022/03/31 03:00:00;;;;;;;14.0;12.7;;;;;;;5.8;100.0;99790;;;;
2022/03/31 03:01:00;;;;;;;14.0;12.7;;;;;;;6.0;100.0;99800;;;;
2022/03/31 03:02:00;;;;;;;14.0;12.7;;;;;;;6.0;100.0;99800;;;;
2022/03/31 03:03:02;;;;;;;14.0;12.7;;;;;;;6.0;100.0;99800;;;;
2022/03/31 03:04:01;;;;;;;14.0;12.7;;;;;;;6.0;100.0;99800;;;;
2022/03/31 03:05:00;;;;;;;14.0;12.7;;;;;;;5.9;100.0;99800;;;;
2022/03/31 03:06:00;;;;;;;14.0;12.7;;;;;;;5.9;100.0;99800;;;;
2022/03/31 03:07:00;;;;;;;14.0;12.7;;;;;;;5.9;100.0;99800;;;;
2022/03/31 03:08:00;;;;;;;14.3;12.9;;;;;;;5.9;100.0;99800;;;;
2022/03/31 03:09:00;;;;;;;14.3;12.9;;;;;;;6.0;100.0;99800;;;;
2022/03/31 03:10:00;;;;;;;14.3;12.9;;;;;;;6.0;100.0;99800;;;;
2022/03/31 03:11:00;;;;;;;14.3;12.9;;;;;;;5.8;100.0;99790;;;;
2022/03/31 03:12:00;;;;;;;14.3;12.9;;;;;;;5.8;100.0;99790;;;;
2022/03/31 03:13:00;;;;;;;14.3;12.9;;;;;;;5.7;100.0;99790;;;;
2022/03/31 03:14:00;;;;;;;14.3;12.9;;;;;;;5.7;100.0;99790;;;;
2022/03/31 03:15:00;;;;;;;14.3;12.9;;;;;;;5.7;100.0;99790;;;;
2022/03/31 03:16:01;;;;;;;14.3;12.9;;;;;;;5.7;100.0;99790;;;;
2022/03/31 03:17:00;;;;;;;14.3;12.9;;;;;;;5.8;100.0;99790;;;;
2022/03/31 03:18:00;;;;;;;14.3;12.9;;;;;;;5.8;100.0;99790;;;;
2022/03/31 03:19:00;;;;;;;14.3;12.9;;;;;;;5.8;100.0;99790;;;;
2022/03/31 03:20:00;;;;;;;14.3;12.9;;;;;;;5.8;100.0;99790;;;;
2022/03/31 03:21:00;;;;;;;14.3;12.9;;;;;;;5.8;100.0;99780;;;;
2022/03/31 03:22:00;;;;;;;14.3;12.9;;;;;;;5.8;100.0;99780;;;;
2022/03/31 03:23:00;;;;;;;14.3;12.9;;;;;;;5.7;100.0;99780;;;;
2022/03/31 03:24:01;;;;;;;14.3;12.9;;;;;;;5.7;100.0;99780;;;;
2022/03/31 03:25:00;;;;;;;14.3;12.9;;;;;;;5.7;100.0;99770;;;;
2022/03/31 03:26:01;;;;;;;14.3;12.9;;;;;;;5.7;100.0;99770;;;;
2022/03/31 03:27:00;;;;;;;14.3;12.9;;;;;;;5.5;100.0;99770;;;;
2022/03/31 03:28:00;;;;;;;11.6;10.7;;;;;;;5.5;100.0;99770;;;;
2022/03/31 03:29:00;;;;;;;11.6;10.7;;;;;;;5.5;100.0;99770;;;;
2022/03/31 03:30:00;;;;;;;11.6;10.7;;;;;;;5.5;100.0;99770;;;;
2022/03/31 03:31:00;;;;;;;11.6;10.7;;;;;;;5.5;100.0;99760;;;;
2022/03/31 03:32:00;;;;;;;11.6;10.7;;;;;;;5.5;100.0;99760;;;;
2022/03/31 03:33:00;;;;;;;11.6;10.7;;;;;;;5.5;100.0;99760;;;;
2022/03/31 03:34:00;;;;;;;11.6;10.7;;;;;;;5.5;100.0;99760;;;;
2022/03/31 03:35:00;;;;;;;11.6;10.7;;;;;;;5.3;100.0;99760;;;;
2022/03/31 03:36:01;;;;;;;11.6;10.7;;;;;;;5.3;100.0;99760;;;;
2022/03/31 03:37:00;;;;;;;11.6;10.7;;;;;;;5.2;100.0;99760;;;;
2022/03/31 03:38:00;;;;;;;11.6;10.7;;;;;;;5.2;100.0;99760;;;;
2022/03/31 03:39:00;;;;;;;11.6;10.7;;;;;;;5.2;100.0;99760;;;;
2022/03/31 03:40:03;;;;;;;11.6;10.7;;;;;;;5.2;100.0;99760;;;;
2022/03/31 03:41:00;;;;;;;11.6;10.7;;;;;;;5.2;100.0;99760;;;;
2022/03/31 03:42:00;;;;;;;11.6;10.7;;;;;;;5.2;100.0;99760;;;;
2022/03/31 03:43:00;;;;;;;11.6;10.7;;;;;;;5.2;100.0;99760;;;;
2022/03/31 03:44:00;;;;;;;11.6;10.7;;;;;;;5.2;100.0;99760;;;;
2022/03/31 03:45:01;;;;;;;11.6;10.7;;;;;;;5.0;100.0;99750;;;;
2022/03/31 03:46:00;;;;;;;11.6;10.7;;;;;;;5.0;100.0;99750;;;;
2022/03/31 03:47:00;;;;;;;11.6;10.7;;;;;;;5.0;100.0;99750;;;;
2022/03/31 03:48:01;;;;;;;11.9;10.8;;;;;;;5.0;100.0;99750;;;;
2022/03/31 03:49:00;;;;;;;11.9;10.8;;;;;;;5.2;100.0;99750;;;;
2022/03/31 03:50:00;;;;;;;11.9;10.8;;;;;;;5.2;100.0;99750;;;;
2022/03/31 03:51:00;;;;;;;11.9;10.8;;;;;;;5.2;100.0;99760;;;;
2022/03/31 03:52:00;;;;;;;11.9;10.8;;;;;;;5.2;100.0;99760;;;;
2022/03/31 03:53:03;;;;;;;11.9;10.8;;;;;;;5.0;100.0;99750;;;;
2022/03/31 03:54:00;;;;;;;11.9;10.8;;;;;;;5.0;100.0;99750;;;;
2022/03/31 03:55:00;;;;;;;11.9;10.8;;;;;;;4.8;100.0;99760;;;;
2022/03/31 03:56:00;;;;;;;11.9;10.8;;;;;;;4.8;100.0;99760;;;;
2022/03/31 03:57:00;;;;;;;11.9;10.8;;;;;;;4.8;100.0;99760;;;;
2022/03/31 03:58:00;;;;;;;11.9;10.8;;;;;;;4.8;100.0;99760;;;;
2022/03/31 03:59:00;;;;;;;11.9;10.8;;;;;;;4.9;100.0;99770;;;;
2022/03/31 04:00:00;;;;;;;11.9;10.8;;;;;;;4.9;100.0;99770;;;;
2022/03/31 04:01:00;;;;;;;11.9;10.8;;;;;;;4.9;100.0;99770;;;;
2022/03/31 04:02:01;;;;;;;11.9;10.8;;;;;;;4.9;100.0;99770;;;;
2022/03/31 04:03:00;;;;;;;11.9;10.8;;;;;;;4.9;100.0;99770;;;;
2022/03/31 04:04:00;;;;;;;11.9;10.8;;;;;;;4.9;100.0;99770;;;;
2022/03/31 04:05:00;;;;;;;11.9;10.8;;;;;;;5.0;100.0;99770;;;;
2022/03/31 04:06:00;;;;;;;11.9;10.8;;;;;;;5.0;100.0;99770;;;;
2022/03/31 04:07:00;;;;;;;11.9;10.8;;;;;;;5.1;100.0;99770;;;;
2022/03/31 04:08:00;;;;;;;9.7;8.9;;;;;;;5.1;100.0;99770;;;;
2022/03/31 04:09:00;;;;;;;9.7;8.9;;;;;;;5.1;100.0;99760;;;;
2022/03/31 04:10:00;;;;;;;9.7;8.9;;;;;;;5.1;100.0;99760;;;;
2022/03/31 04:11:00;;;;;;;9.7;8.9;;;;;;;5.2;100.0;99760;;;;
2022/03/31 04:12:00;;;;;;;9.7;8.9;;;;;;;5.2;100.0;99760;;;;
2022/03/31 04:13:00;;;;;;;9.7;8.9;;;;;;;5.2;100.0;99760;;;;
2022/03/31 04:14:00;;;;;;;9.7;8.9;;;;;;;5.2;100.0;99760;;;;
2022/03/31 04:15:00;;;;;;;9.7;8.9;;;;;;;5.0;100.0;99760;;;;
2022/03/31 04:16:00;;;;;;;9.7;8.9;;;;;;;5.0;100.0;99760;;;;
2022/03/31 04:17:00;;;;;;;9.7;8.9;;;;;;;4.9;100.0;99770;;;;
2022/03/31 04:18:00;;;;;;;9.7;8.9;;;;;;;4.9;100.0;99770;;;;
2022/03/31 04:19:00;;;;;;;9.7;8.9;;;;;;;4.9;100.0;99770;;;;
2022/03/31 04:20:00;;;;;;;9.7;8.9;;;;;;;4.9;100.0;99770;;;;
2022/03/31 04:21:02;;;;;;;9.7;8.9;;;;;;;5.0;100.0;99770;;;;
2022/03/31 04:22:00;;;;;;;9.7;8.9;;;;;;;5.0;100.0;99770;;;;
2022/03/31 04:23:01;;;;;;;9.7;8.9;;;;;;;4.9;100.0;99770;;;;
2022/03/31 04:24:00;;;;;;;9.7;8.9;;;;;;;4.9;100.0;99770;;;;
2022/03/31 04:25:00;;;;;;;9.7;8.9;;;;;;;5.1;100.0;99770;;;;
2022/03/31 04:26:00;;;;;;;9.7;8.9;;;;;;;5.1;100.0;99770;;;;
2022/03/31 04:27:00;;;;;;;9.7;8.9;;;;;;;4.9;100.0;99770;;;;
2022/03/31 04:28:00;;;;;;;7.4;6.8;;;;;;;4.9;100.0;99770;;;;
2022/03/31 04:29:01;;;;;;;7.4;6.8;;;;;;;4.8;100.0;99770;;;;
2022/03/31 04:30:00;;;;;;;7.4;6.8;;;;;;;4.8;100.0;99770;;;;
2022/03/31 04:31:00;;;;;;;7.4;6.8;;;;;;;4.9;100.0;99780;;;;
2022/03/31 04:32:00;;;;;;;7.4;6.8;;;;;;;4.9;100.0;99780;;;;
2022/03/31 04:33:00;;;;;;;7.4;6.8;;;;;;;4.8;100.0;99770;;;;
2022/03/31 04:34:00;;;;;;;7.4;6.8;;;;;;;4.8;100.0;99770;;;;
2022/03/31 04:35:00;;;;;;;7.4;6.8;;;;;;;4.8;100.0;99770;;;;
2022/03/31 04:36:00;;;;;;;7.4;6.8;;;;;;;4.8;100.0;99770;;;;
2022/03/31 04:37:00;;;;;;;7.4;6.8;;;;;;;4.9;100.0;99780;;;;
2022/03/31 04:38:00;;;;;;;7.4;6.8;;;;;;;4.9;100.0;99780;;;;
2022/03/31 04:39:00;;;;;;;7.4;6.8;;;;;;;4.6;100.0;99780;;;;
2022/03/31 04:40:00;;;;;;;7.4;6.8;;;;;;;4.6;100.0;99780;;;;
2022/03/31 04:41:00;;;;;;;7.4;6.8;;;;;;;4.8;100.0;99770;;;;
2022/03/31 04:42:00;;;;;;;7.4;6.8;;;;;;;4.8;100.0;99770;;;;
2022/03/31 04:43:00;;;;;;;7.4;6.8;;;;;;;4.8;100.0;99780;;;;
2022/03/31 04:44:00;;;;;;;7.4;6.8;;;;;;;4.8;100.0;99780;;;;
2022/03/31 04:45:02;;;;;;;7.4;6.8;;;;;;;4.8;100.0;99770;;;;
2022/03/31 04:46:00;;;;;;;7.4;6.8;;;;;;;4.8;100.0;99770;;;;
2022/03/31 04:47:00;;;;;;;7.4;6.8;;;;;;;4.8;100.0;99780;;;;
2022/03/31 04:48:00;;;;;;;6.1;5.7;;;;;;;4.8;100.0;99780;;;;
2022/03/31 04:49:00;;;;;;;6.1;5.7;;;;;;;4.7;100.0;99780;;;;
2022/03/31 04:50:00;;;;;;;6.1;5.7;;;;;;;4.7;100.0;99780;;;;
2022/03/31 04:51:00;;;;;;;6.1;5.7;;;;;;;4.8;100.0;99780;;;;
2022/03/31 04:52:00;;;;;;;6.1;5.7;;;;;;;4.8;100.0;99780;;;;
2022/03/31 04:53:00;;;;;;;6.1;5.7;;;;;;;4.8;100.0;99770;;;;
2022/03/31 04:54:00;;;;;;;6.1;5.7;;;;;;;4.8;100.0;99770;;;;
2022/03/31 04:55:00;;;;;;;6.1;5.7;;;;;;;4.7;100.0;99770;;;;
2022/03/31 04:56:00;;;;;;;6.1;5.7;;;;;;;4.7;100.0;99770;;;;
2022/03/31 04:57:00;;;;;;;6.1;5.7;;;;;;;4.5;100.0;99780;;;;
2022/03/31 04:58:00;;;;;;;6.1;5.7;;;;;;;4.5;100.0;99780;;;;
2022/03/31 04:59:00;;;;;;;6.1;5.7;;;;;;;4.6;100.0;99780;;;;
2022/03/31 05:00:00;;;;;;;6.1;5.7;;;;;;;4.6;100.0;99780;;;;
2022/03/31 05:01:00;;;;;;;6.1;5.7;;;;;;;4.5;100.0;99780;;;;
2022/03/31 05:02:00;;;;;;;6.1;5.7;;;;;;;4.5;100.0;99780;;;;
2022/03/31 05:03:00;;;;;;;6.1;5.7;;;;;;;4.4;100.0;99780;;;;
2022/03/31 05:04:00;;;;;;;6.1;5.7;;;;;;;4.4;100.0;99780;;;;
2022/03/31 05:05:00;;;;;;;6.1;5.7;;;;;;;4.3;100.0;99780;;;;
2022/03/31 05:06:00;;;;;;;6.1;5.7;;;;;;;4.3;100.0;99780;;;;
2022/03/31 05:07:00;;;;;;;5.9;5.5;;;;;;;4.2;100.0;99790;;;;
2022/03/31 05:08:00;;;;;;;5.9;5.5;;;;;;;4.2;100.0;99790;;;;
2022/03/31 05:09:00;;;;;;;5.9;5.5;;;;;;;4.3;100.0;99780;;;;
2022/03/31 05:10:00;;;;;;;5.9;5.5;;;;;;;4.3;100.0;99780;;;;
2022/03/31 05:11:00;;;;;;;5.9;5.5;;;;;;;4.4;100.0;99790;;;;
2022/03/31 05:12:00;;;;;;;5.9;5.5;;;;;;;4.4;100.0;99790;;;;
2022/03/31 05:13:00;;;;;;;5.9;5.5;;;;;;;4.4;100.0;99780;;;;
2022/03/31 05:14:00;;;;;;;5.9;5.5;;;;;;;4.4;100.0;99780;;;;
2022/03/31 05:15:00;;;;;;;5.9;5.5;;;;;;;4.4;100.0;99780;;;;
2022/03/31 05:16:00;;;;;;;5.9;5.5;;;;;;;4.4;100.0;99780;;;;
2022/03/31 05:17:01;;;;;;;5.9;5.5;;;;;;;4.3;100.0;99780;;;;
2022/03/31 05:18:00;;;;;;;5.9;5.5;;;;;;;4.3;100.0;99780;;;;
2022/03/31 05:19:00;;;;;;;5.9;5.5;;;;;;;4.4;100.0;99780;;;;
2022/03/31 05:20:04;;;;;;;5.9;5.5;;;;;;;4.4;100.0;99780;;;;
2022/03/31 05:21:02;;;;;;;5.9;5.5;;;;;;;4.3;100.0;99780;;;;
2022/03/31 05:22:00;;;;;;;5.9;5.5;;;;;;;4.3;100.0;99780;;;;
2022/03/31 05:23:00;;;;;;;5.9;5.5;;;;;;;4.2;100.0;99780;;;;
2022/03/31 05:24:00;;;;;;;5.9;5.5;;;;;;;4.2;100.0;99780;;;;
2022/03/31 05:25:00;;;;;;;5.9;5.5;;;;;;;4.1;100.0;99780;;;;
2022/03/31 05:26:00;;;;;;;5.9;5.5;;;;;;;4.1;100.0;99780;;;;
2022/03/31 05:27:00;;;;;;;5.7;5.3;;;;;;;4.1;100.0;99780;;;;
2022/03/31 05:28:00;;;;;;;5.7;5.3;;;;;;;4.1;100.0;99780;;;;
2022/03/31 05:29:00;;;;;;;5.7;5.3;;;;;;;4.2;100.0;99780;;;;
2022/03/31 05:30:00;;;;;;;5.7;5.3;;;;;;;4.2;100.0;99780;;;;
2022/03/31 05:31:01;;;;;;;5.7;5.3;;;;;;;4.2;100.0;99780;;;;
2022/03/31 05:32:00;;;;;;;5.7;5.3;;;;;;;4.2;100.0;99780;;;;
2022/03/31 05:33:00;;;;;;;5.7;5.3;;;;;;;4.1;100.0;99780;;;;
2022/03/31 05:34:00;;;;;;;5.7;5.3;;;;;;;4.1;100.0;99780;;;;
2022/03/31 05:35:00;;;;;;;5.7;5.3;;;;;;;4.3;100.0;99780;;;;
2022/03/31 05:36:01;;;;;;;5.7;5.3;;;;;;;4.3;100.0;99780;;;;
2022/03/31 05:37:02;;;;;;;5.7;5.3;;;;;;;4.3;100.0;99780;;;;
2022/03/31 05:38:01;;;;;;;5.7;5.3;;;;;;;4.3;100.0;99780;;;;
2022/03/31 05:39:00;;;;;;;5.7;5.3;;;;;;;4.2;100.0;99780;;;;
2022/03/31 05:40:03;;;;;;;5.7;5.3;;;;;;;4.2;100.0;99780;;;;
2022/03/31 05:41:00;;;;;;;5.7;5.3;;;;;;;4.2;100.0;99780;;;;
2022/03/31 05:42:00;;;;;;;5.7;5.3;;;;;;;4.2;100.0;99780;;;;
2022/03/31 05:43:00;;;;;;;5.7;5.3;;;;;;;4.1;100.0;99780;;;;
2022/03/31 05:44:00;;;;;;;5.7;5.3;;;;;;;4.1;100.0;99780;;;;
2022/03/31 05:45:01;;;;;;;5.7;5.3;;;;;;;4.1;100.0;99780;;;;
2022/03/31 05:46:00;;;;;;;5.7;5.3;;;;;;;4.1;100.0;99780;;;;
2022/03/31 05:47:01;;;;;;;5.5;5.1;;;;;;;4.1;100.0;99780;;;;
2022/03/31 05:48:00;;;;;;;5.5;5.1;;;;;;;4.1;100.0;99780;;;;
2022/03/31 05:49:00;;;;;;;5.5;5.1;;;;;;;4.1;100.0;99790;;;;
2022/03/31 05:50:08;;;;;;;5.5;5.1;;;;;;;4.1;100.0;99790;;;;
2022/03/31 05:51:00;;;;;;;5.5;5.1;;;;;;;4.0;100.0;99780;;;;
2022/03/31 05:52:00;;;;;;;5.5;5.1;;;;;;;4.0;100.0;99780;;;;
2022/03/31 05:53:00;;;;;;;5.5;5.1;;;;;;;4.1;100.0;99790;;;;
2022/03/31 05:54:03;;;;;;;5.5;5.1;;;;;;;4.1;100.0;99790;;;;
2022/03/31 05:55:00;;;;;;;5.5;5.1;;;;;;;3.9;100.0;99790;;;;
2022/03/31 05:56:00;;;;;;;5.5;5.1;;;;;;;3.9;100.0;99790;;;;
2022/03/31 05:57:00;;;;;;;5.5;5.1;;;;;;;3.9;100.0;99790;;;;
2022/03/31 05:58:00;;;;;;;5.5;5.1;;;;;;;3.9;100.0;99790;;;;
2022/03/31 05:59:00;;;;;;;5.5;5.1;;;;;;;4.1;100.0;99790;;;;
2022/03/31 06:00:00;;;;;;;5.5;5.1;;;;;;;4.1;100.0;99790;;;;
2022/03/31 06:01:00;;;;;;;5.5;5.1;;;;;;;4.1;100.0;99790;;;;
2022/03/31 06:02:00;;;;;;;5.5;5.1;;;;;;;4.1;100.0;99790;;;;
2022/03/31 06:03:00;;;;;;;5.5;5.1;;;;;;;4.0;100.0;99800;;;;
2022/03/31 06:04:00;;;;;;;5.5;5.1;;;;;;;4.0;100.0;99800;;;;
2022/03/31 06:05:00;;;;;;;5.5;5.1;;;;;;;4.0;100.0;99800;;;;
2022/03/31 06:06:00;;;;;;;5.5;5.1;;;;;;;4.0;100.0;99800;;;;
2022/03/31 06:07:00;;;;;;;4.8;4.5;;;;;;;4.0;100.0;99790;;;;
2022/03/31 06:08:00;;;;;;;4.8;4.5;;;;;;;4.0;100.0;99790;;;;
2022/03/31 06:09:00;;;;;;;4.8;4.5;;;;;;;3.9;100.0;99800;;;;
2022/03/31 06:10:00;;;;;;;4.8;4.5;;;;;;;3.9;100.0;99800;;;;
2022/03/31 06:11:00;;;;;;;4.8;4.5;;;;;;;3.9;100.0;99800;;;;
2022/03/31 06:12:00;;;;;;;4.8;4.5;;;;;;;3.9;100.0;99800;;;;
2022/03/31 06:13:01;;;;;;;4.8;4.5;;;;;;;3.9;100.0;99790;;;;
2022/03/31 06:14:00;;;;;;;4.8;4.5;;;;;;;3.9;100.0;99790;;;;
2022/03/31 06:15:02;;;;;;;4.8;4.5;;;;;;;3.8;100.0;99790;;;;
2022/03/31 06:16:00;;;;;;;4.8;4.5;;;;;;;3.8;100.0;99790;;;;
2022/03/31 06:17:00;;;;;;;4.8;4.5;;;;;;;3.8;100.0;99790;;;;
2022/03/31 06:18:00;;;;;;;4.8;4.5;;;;;;;3.8;100.0;99790;;;;
2022/03/31 06:19:00;;;;;;;4.8;4.5;;;;;;;3.9;100.0;99800;;;;
2022/03/31 06:20:00;;;;;;;4.8;4.5;;;;;;;3.9;100.0;99800;;;;
2022/03/31 06:21:01;;;;;;;4.8;4.5;;;;;;;3.6;100.0;99800;;;;
2022/03/31 06:22:00;;;;;;;4.8;4.5;;;;;;;3.6;100.0;99800;;;;
2022/03/31 06:23:01;;;;;;;4.8;4.5;;;;;;;3.7;100.0;99790;;;;
2022/03/31 06:24:00;;;;;;;4.8;4.5;;;;;;;3.7;100.0;99790;;;;
2022/03/31 06:25:00;;;;;;;4.8;4.5;;;;;;;3.7;100.0;99790;;;;
2022/03/31 06:26:00;;;;;;;4.8;4.5;;;;;;;3.7;100.0;99790;;;;
2022/03/31 06:27:00;;;;;;;5.7;5.2;;;;;;;3.6;100.0;99790;;;;
2022/03/31 06:28:00;;;;;;;5.7;5.2;;;;;;;3.6;100.0;99790;;;;
2022/03/31 06:29:00;;;;;;;5.7;5.2;;;;;;;3.4;100.0;99790;;;;
2022/03/31 06:30:00;;;;;;;5.7;5.2;;;;;;;3.4;100.0;99790;;;;
2022/03/31 06:31:00;;;;;;;5.7;5.2;;;;;;;3.4;100.0;99790;;;;
2022/03/31 06:32:01;;;;;;;5.7;5.2;;;;;;;3.4;100.0;99790;;;;
2022/03/31 06:33:01;;;;;;;5.7;5.2;;;;;;;3.4;100.0;99790;;;;
2022/03/31 06:34:00;;;;;;;5.7;5.2;;;;;;;3.4;100.0;99790;;;;
2022/03/31 06:35:00;;;;;;;5.7;5.2;;;;;;;3.5;100.0;99790;;;;